Time;durP1;ratioP1;P1;durP2;ratioP2;P2;SDS_P1;SDS_P2;PMS_P1;PMS_P2;Temp;Humidity;BMP_temperature;BMP_pressure;BME280_temperature;BME280_humidity;BME280_pressure;Samples;Min_cycle;Max_cycle;Signal;HPM_P1;HPM_P2
2022/01/11 00:00:16;;;;;;;32.78;16.50;;;;;;;-1.13;100.00;102306.63;845816;23;870;-83
2022/01/11 00:00:37;;;;;;;33.22;15.90;;;;;;;-1.14;100.00;102325.38;840351;23;1284;-82
2022/01/11 00:01:08;;;;;;;36.00;16.38;;;;;;;-1.19;100.00;102301.09;837054;23;1224;-82
2022/01/11 00:01:29;;;;;;;34.17;16.17;;;;;;;-1.14;100.00;102309.09;825029;23;4198;-82
2022/01/11 00:01:53;;;;;;;33.35;15.82;;;;;;;-1.00;100.00;102310.94;836418;23;1233;-82
2022/01/11 00:02:16;;;;;;;33.65;16.48;;;;;;;-1.04;100.00;102327.81;832719;23;1308;-82
2022/01/11 00:02:41;;;;;;;33.90;16.20;;;;;;;-0.99;100.00;102330.69;835837;23;1212;-83
2022/01/11 00:03:06;;;;;;;31.48;15.90;;;;;;;-1.02;100.00;102335.63;840724;23;1004;-82
2022/01/11 00:03:27;;;;;;;31.85;16.15;;;;;;;-1.05;100.00;102314.88;839729;23;1313;-82
2022/01/11 00:03:49;;;;;;;31.58;15.60;;;;;;;-1.10;100.00;102308.53;840384;23;1108;-83
2022/01/11 00:04:10;;;;;;;33.28;16.67;;;;;;;-1.07;100.00;102317.31;844838;23;1506;-81
2022/01/11 00:04:31;;;;;;;30.38;15.77;;;;;;;-1.07;100.00;102312.19;840238;23;4421;-83
2022/01/11 00:04:55;;;;;;;30.47;16.07;;;;;;;-1.07;100.00;102316.44;840156;23;990;-82
2022/01/11 00:05:26;;;;;;;33.58;16.38;;;;;;;-1.09;100.00;102297.47;844497;23;1265;-82
2022/01/11 00:05:56;;;;;;;32.97;16.88;;;;;;;-1.07;100.00;102344.66;844755;23;907;-82
2022/01/11 00:07:01;;;;;;;36.90;17.02;;;;;;;-1.11;100.00;102294.81;837725;23;866;-82
2022/01/11 00:07:06;;;;;;;33.63;17.02;;;;;;;-1.08;100.00;102333.53;831041;23;1305;-82
2022/01/11 00:07:30;;;;;;;34.63;17.40;;;;;;;-1.13;100.00;102327.16;818642;23;4283;-82
2022/01/11 00:07:53;;;;;;;37.45;17.88;;;;;;;-1.07;100.00;102329.25;834899;23;1404;-82
2022/01/11 00:08:15;;;;;;;33.47;17.30;;;;;;;-1.12;100.00;102298.16;841073;23;792;-82
2022/01/11 00:08:40;;;;;;;33.60;16.95;;;;;;;-1.13;100.00;102327.16;830720;23;1296;-82
2022/01/11 00:09:20;;;;;;;34.20;17.08;;;;;;;-1.10;100.00;102352.16;836062;23;1431;-82
2022/01/11 00:09:45;;;;;;;34.80;16.58;;;;;;;-0.95;100.00;102316.41;837219;23;1215;-82
2022/01/11 00:10:09;;;;;;;33.08;17.08;;;;;;;-0.93;100.00;102318.28;833900;23;2008;-83
2022/01/11 00:10:53;;;;;;;35.08;17.10;;;;;;;-0.82;100.00;102301.03;832421;23;4612;-82
2022/01/11 00:11:15;;;;;;;31.02;15.82;;;;;;;-0.90;100.00;102303.09;841705;23;1264;-83
2022/01/11 00:11:35;;;;;;;32.38;16.38;;;;;;;-0.80;100.00;102337.06;835161;23;1125;-83
2022/01/11 00:12:12;;;;;;;30.30;15.77;;;;;;;-0.73;100.00;102322.19;845065;23;1440;-82
2022/01/11 00:12:33;;;;;;;33.45;16.48;;;;;;;-0.75;100.00;102302.34;840330;23;1108;-84
2022/01/11 00:12:59;;;;;;;32.07;16.63;;;;;;;-0.80;100.00;102312.31;844792;23;1247;-84
2022/01/11 00:13:20;;;;;;;31.35;15.85;;;;;;;-0.89;100.00;102297.16;828095;23;4265;-82
2022/01/11 00:13:42;;;;;;;31.08;15.82;;;;;;;-0.90;100.00;102299.59;836663;23;1417;-82
2022/01/11 00:14:03;;;;;;;31.80;16.58;;;;;;;-0.95;100.00;102321.53;835945;23;1434;-83
2022/01/11 00:14:24;;;;;;;33.58;16.73;;;;;;;-0.91;100.00;102319.28;841809;23;986;-82
2022/01/11 00:14:45;;;;;;;33.38;16.52;;;;;;;-0.91;100.00;102305.56;836495;23;1163;-82
2022/01/11 00:15:11;;;;;;;31.83;16.45;;;;;;;-0.95;100.00;102303.56;828388;23;1341;-82
2022/01/11 00:15:35;;;;;;;33.75;16.67;;;;;;;-0.96;100.00;102324.88;835601;23;1291;-82
2022/01/11 00:15:55;;;;;;;33.80;16.63;;;;;;;-0.90;100.00;102328.75;840787;23;1341;-84
2022/01/11 00:16:18;;;;;;;31.83;16.37;;;;;;;-0.78;100.00;102305.56;840830;23;4199;-82
2022/01/11 00:16:46;;;;;;;36.17;15.95;;;;;;;-0.71;100.00;102302.66;840451;23;1184;-82
2022/01/11 00:17:07;;;;;;;32.90;16.63;;;;;;;-0.78;100.00;102310.72;838929;23;1378;-82
2022/01/11 00:17:30;;;;;;;32.72;16.55;;;;;;;-0.77;100.00;102324.47;839438;23;1256;-82
2022/01/11 00:17:51;;;;;;;33.72;16.67;;;;;;;-0.79;100.00;102303.81;840586;23;1002;-81
2022/01/11 00:18:15;;;;;;;34.45;16.98;;;;;;;-0.84;100.00;102318.03;834090;23;1182;-82
2022/01/11 00:18:43;;;;;;;35.60;16.73;;;;;;;-0.84;100.00;102314.53;843056;23;1317;-82
2022/01/11 00:19:07;;;;;;;33.05;16.15;;;;;;;-0.89;100.00;102302.31;844349;23;875;-82
2022/01/11 00:19:33;;;;;;;32.35;16.08;;;;;;;-0.91;100.00;102329.53;841265;23;4222;-82
2022/01/11 00:19:53;;;;;;;35.67;17.02;;;;;;;-0.70;100.00;102334.38;839424;23;797;-82
2022/01/11 00:20:19;;;;;;;35.67;16.10;;;;;;;-0.59;100.00;102300.00;840607;23;821;-82
2022/01/11 00:20:40;;;;;;;37.45;17.23;;;;;;;-0.47;100.00;102301.63;834202;23;1342;-82
2022/01/11 00:21:01;;;;;;;36.22;17.17;;;;;;;-0.47;100.00;102328.22;831147;23;1501;-82
2022/01/11 00:21:24;;;;;;;36.80;17.08;;;;;;;-0.49;100.00;102303.19;834583;23;1276;-82
2022/01/11 00:21:47;;;;;;;33.97;15.80;;;;;;;-0.48;100.00;102328.13;840146;23;843;-83
2022/01/11 00:22:17;;;;;;;33.53;15.88;;;;;;;-0.45;100.00;102316.34;836721;23;790;-82
2022/01/11 00:22:49;;;;;;;33.17;15.90;;;;;;;-0.45;100.00;102354.88;833285;23;4577;-82
2022/01/11 00:24:28;;;;;;;34.00;17.25;;;;;;;-0.69;100.00;102308.78;844124;23;1414;-82
2022/01/11 00:24:49;;;;;;;35.38;17.48;;;;;;;-0.71;100.00;102292.38;843121;23;1468;-82
2022/01/11 00:25:10;;;;;;;36.77;17.80;;;;;;;-0.75;100.00;102317.75;833697;23;4463;-82
2022/01/11 00:25:34;;;;;;;32.80;17.25;;;;;;;-0.78;100.00;102327.81;834639;23;1331;-83
2022/01/11 00:25:57;;;;;;;37.78;18.25;;;;;;;-0.80;100.00;102296.91;835659;23;1267;-82
2022/01/11 00:26:18;;;;;;;36.08;18.05;;;;;;;-0.75;100.00;102308.38;834841;23;1251;-82
2022/01/11 00:26:41;;;;;;;34.80;16.60;;;;;;;-0.79;100.00;102323.44;836396;23;799;-82
2022/01/11 00:27:05;;;;;;;33.95;16.38;;;;;;;-0.87;100.00;102320.38;841967;23;1290;-82
2022/01/11 00:27:29;;;;;;;33.83;17.42;;;;;;;-0.84;100.00;102347.91;834646;23;1312;-82
2022/01/11 00:27:53;;;;;;;36.60;17.38;;;;;;;-0.80;100.00;102327.72;835132;23;1278;-82
2022/01/11 00:28:21;;;;;;;37.13;16.88;;;;;;;-0.81;100.00;102295.09;833755;23;4343;-84
2022/01/11 00:29:05;;;;;;;37.17;17.73;;;;;;;-0.74;100.00;102297.28;843536;23;1159;-82
2022/01/11 00:29:39;;;;;;;33.22;17.25;;;;;;;-0.75;100.00;102302.34;838019;23;1240;-82
2022/01/11 00:30:08;;;;;;;34.00;17.60;;;;;;;-0.87;100.00;102330.66;842255;23;1878;-83
2022/01/11 00:30:41;;;;;;;36.10;18.20;;;;;;;-0.88;100.00;102303.19;835723;23;1178;-82
2022/01/11 00:31:05;;;;;;;35.12;17.32;;;;;;;-0.91;100.00;102324.41;836480;23;1437;-82
2022/01/11 00:31:29;;;;;;;37.35;18.17;;;;;;;-0.89;100.00;102303.97;835229;23;4399;-82
2022/01/11 00:31:52;;;;;;;32.33;17.10;;;;;;;-0.92;100.00;102307.22;836248;23;1305;-82
2022/01/11 00:32:23;;;;;;;35.30;17.08;;;;;;;-0.91;100.00;102313.25;840494;23;1326;-82
2022/01/11 00:32:49;;;;;;;35.05;16.85;;;;;;;-0.98;100.00;102324.78;842109;23;839;-82
2022/01/11 00:33:15;;;;;;;36.15;17.98;;;;;;;-0.94;100.00;102305.31;836912;23;1248;-83
2022/01/11 00:33:43;;;;;;;36.40;17.80;;;;;;;-0.98;100.00;102305.91;839935;23;1391;-83
2022/01/11 00:34:08;;;;;;;36.47;18.05;;;;;;;-0.96;100.00;102330.00;837290;23;1512;-83
2022/01/11 00:34:46;;;;;;;36.40;17.40;;;;;;;-0.83;100.00;102336.88;835946;23;5622;-82
2022/01/11 00:35:10;;;;;;;35.42;17.83;;;;;;;-0.92;100.00;102332.00;832445;23;1292;-82
2022/01/11 00:35:40;;;;;;;35.10;17.48;;;;;;;-0.88;100.00;102336.56;833867;23;1230;-82
2022/01/11 00:36:03;;;;;;;32.92;17.00;;;;;;;-0.95;100.00;102311.25;836445;23;1359;-82
2022/01/11 00:36:39;;;;;;;35.75;17.75;;;;;;;-0.97;100.00;102308.59;840292;23;971;-82
2022/01/11 00:37:02;;;;;;;36.83;17.17;;;;;;;-0.75;100.00;102300.69;843103;23;1520;-82
2022/01/11 00:37:23;;;;;;;35.08;16.95;;;;;;;-0.74;100.00;102302.44;846763;23;5325;-83
2022/01/11 00:37:47;;;;;;;36.97;17.67;;;;;;;-0.80;100.00;102309.75;844432;23;1396;-82
2022/01/11 00:38:16;;;;;;;36.38;17.67;;;;;;;-0.72;100.00;102306.00;845812;23;823;-82
2022/01/11 00:38:41;;;;;;;35.40;18.15;;;;;;;-0.72;100.00;102311.16;842277;23;1273;-82
2022/01/11 00:39:03;;;;;;;35.83;17.77;;;;;;;-0.63;100.00;102322.84;847302;23;1333;-81
2022/01/11 00:39:24;;;;;;;35.10;17.90;;;;;;;-0.62;100.00;102306.59;838717;23;1300;-82
2022/01/11 00:39:45;;;;;;;33.95;18.10;;;;;;;-0.58;100.00;102298.31;842943;23;1273;-82
2022/01/11 00:40:13;;;;;;;35.55;18.05;;;;;;;-0.63;100.00;102298.03;838016;23;1279;-81
2022/01/11 00:40:37;;;;;;;33.65;17.52;;;;;;;-0.56;100.00;102338.75;840807;23;4722;-82
2022/01/11 00:41:06;;;;;;;32.60;16.58;;;;;;;-0.47;100.00;102337.59;844293;23;842;-82
2022/01/11 00:41:27;;;;;;;34.36;16.60;;;;;;;-0.54;100.00;102329.47;838362;23;1241;-82
2022/01/11 00:41:47;;;;;;;32.93;17.10;;;;;;;-0.64;100.00;102301.38;839251;23;1302;-82
2022/01/11 00:42:11;;;;;;;33.30;17.02;;;;;;;-0.64;100.00;102333.88;839704;23;1303;-82
2022/01/11 00:42:38;;;;;;;33.65;17.48;;;;;;;-0.61;100.00;102310.97;834972;23;1383;-82
2022/01/11 00:42:59;;;;;;;35.45;17.00;;;;;;;-0.59;100.00;102332.53;835988;23;822;-82
2022/01/11 00:43:23;;;;;;;34.17;16.77;;;;;;;-0.67;100.00;102336.25;836900;23;4298;-82
2022/01/11 00:43:47;;;;;;;35.28;17.90;;;;;;;-0.74;100.00;102319.53;838994;23;1116;-82
2022/01/11 00:44:08;;;;;;;36.65;18.00;;;;;;;-0.81;100.00;102337.88;833936;23;1299;-82
2022/01/11 00:44:31;;;;;;;35.08;17.30;;;;;;;-0.86;100.00;102348.72;830322;23;1277;-82
2022/01/11 00:44:54;;;;;;;35.85;17.73;;;;;;;-0.87;100.00;102310.13;833857;23;1355;-82
2022/01/11 00:45:15;;;;;;;36.85;17.75;;;;;;;-0.83;100.00;102340.34;838753;23;1267;-83
2022/01/11 00:45:38;;;;;;;34.90;17.77;;;;;;;-0.83;100.00;102306.06;834334;23;1198;-82
2022/01/11 00:46:03;;;;;;;33.35;17.83;;;;;;;-0.84;100.00;102329.94;837624;23;1309;-82
2022/01/11 00:46:23;;;;;;;35.15;18.10;;;;;;;-0.81;100.00;102305.38;833024;23;4296;-82
2022/01/11 00:46:46;;;;;;;36.10;18.02;;;;;;;-0.84;100.00;102312.88;830616;23;1390;-82
2022/01/11 00:47:07;;;;;;;33.88;17.17;;;;;;;-0.89;100.00;102333.13;832424;23;864;-82
2022/01/11 00:47:27;;;;;;;34.38;18.27;;;;;;;-0.93;100.00;102315.72;830060;23;806;-82
2022/01/11 00:47:50;;;;;;;34.83;18.60;;;;;;;-0.95;100.00;102312.13;829388;23;1388;-82
2022/01/11 00:48:11;;;;;;;36.22;17.92;;;;;;;-0.95;100.00;102321.53;834508;23;1261;-82
2022/01/11 00:48:32;;;;;;;34.42;17.70;;;;;;;-0.92;100.00;102306.34;837244;23;1312;-82
2022/01/11 00:48:53;;;;;;;32.58;16.80;;;;;;;-0.83;100.00;102314.69;838580;23;1237;-82
2022/01/11 00:49:13;;;;;;;30.80;16.33;;;;;;;-0.75;100.00;102304.91;827926;23;4253;-83
2022/01/11 00:49:39;;;;;;;30.52;15.75;;;;;;;-0.73;100.00;102324.78;834413;23;1252;-83
2022/01/11 00:50:00;;;;;;;30.88;16.08;;;;;;;-0.69;100.00;102342.16;833825;23;1224;-82
2022/01/11 00:50:21;;;;;;;29.45;15.10;;;;;;;-0.65;100.00;102306.41;833249;23;1893;-81
2022/01/11 00:51:01;;;;;;;29.70;15.17;;;;;;;-0.72;100.00;102311.16;835505;23;1177;-83
2022/01/11 00:51:22;;;;;;;28.98;15.38;;;;;;;-0.71;100.00;102309.47;839171;23;1225;-82
2022/01/11 00:51:43;;;;;;;28.55;14.55;;;;;;;-0.64;100.00;102326.19;832116;23;1276;-81
2022/01/11 00:52:04;;;;;;;26.25;14.45;;;;;;;-0.67;100.00;102325.97;836048;23;1213;-82
2022/01/11 00:52:24;;;;;;;28.17;14.55;;;;;;;-0.62;100.00;102310.09;837982;23;4207;-82
2022/01/11 00:52:45;;;;;;;28.33;14.70;;;;;;;-0.63;100.00;102308.31;838149;23;1368;-82
2022/01/11 00:53:08;;;;;;;24.87;13.33;;;;;;;-0.62;100.00;102364.03;838483;23;761;-82
2022/01/11 00:53:28;;;;;;;24.40;13.93;;;;;;;-0.65;100.00;102332.09;836750;23;1390;-81
2022/01/11 00:53:49;;;;;;;26.83;14.38;;;;;;;-0.61;100.00;102334.09;835055;23;920;-82
2022/01/11 00:54:09;;;;;;;26.70;14.10;;;;;;;-0.65;100.00;102342.38;838490;23;1212;-82
2022/01/11 00:54:32;;;;;;;27.63;14.38;;;;;;;-0.71;100.00;102332.56;838515;23;805;-82
2022/01/11 00:54:52;;;;;;;26.88;14.68;;;;;;;-0.75;100.00;102340.84;838795;23;946;-82
2022/01/11 00:55:16;;;;;;;27.57;15.47;;;;;;;-0.73;100.00;102345.31;828899;23;4304;-82
2022/01/11 00:55:38;;;;;;;28.83;15.32;;;;;;;-0.76;100.00;102316.88;831765;23;818;-82
2022/01/11 00:55:59;;;;;;;28.65;14.68;;;;;;;-0.80;100.00;102343.13;834779;23;785;-82
2022/01/11 00:56:20;;;;;;;26.27;14.27;;;;;;;-0.82;100.00;102324.13;837154;23;1233;-82
2022/01/11 00:56:43;;;;;;;27.88;14.60;;;;;;;-0.89;100.00;102310.00;841417;23;1349;-82
2022/01/11 00:57:04;;;;;;;27.77;14.60;;;;;;;-0.86;100.00;102343.59;843255;23;820;-81
2022/01/11 00:57:25;;;;;;;28.35;14.65;;;;;;;-0.89;100.00;102329.66;836036;23;1306;-82
2022/01/11 00:57:45;;;;;;;29.55;14.23;;;;;;;-0.88;100.00;102328.88;837658;23;1314;-82
2022/01/11 00:58:07;;;;;;;28.48;14.38;;;;;;;-0.94;100.00;102313.94;835409;23;1188;-82
2022/01/11 00:58:35;;;;;;;28.42;14.95;;;;;;;-0.94;100.00;102310.44;832974;23;4234;-82
2022/01/11 00:58:56;;;;;;;28.75;14.90;;;;;;;-0.96;100.00;102366.84;835820;23;1331;-82
2022/01/11 00:59:16;;;;;;;27.63;15.52;;;;;;;-1.00;100.00;102359.72;828697;23;1367;-82
2022/01/11 00:59:39;;;;;;;28.90;15.50;;;;;;;-0.95;100.00;102342.06;829393;23;860;-82
2022/01/11 01:00:00;;;;;;;28.13;14.60;;;;;;;-0.97;100.00;102338.50;832640;23;1232;-82
2022/01/11 01:00:21;;;;;;;29.17;14.80;;;;;;;-1.00;100.00;102326.31;831867;23;1260;-81
2022/01/11 01:00:42;;;;;;;27.27;14.40;;;;;;;-1.09;100.00;102318.00;835573;23;1229;-82
2022/01/11 01:01:03;;;;;;;27.55;14.23;;;;;;;-0.98;100.00;102336.69;830097;23;1233;-81
2022/01/11 01:01:37;;;;;;;;;;;;;;;;;;;;;
2022/01/11 01:02:12;;;;;;;27.15;14.07;;;;;;;-0.99;100.00;102334.94;836613;23;1271;-82
2022/01/11 01:02:36;;;;;;;25.63;14.07;;;;;;;-0.93;100.00;102343.06;838634;23;1019;-82
2022/01/11 01:02:59;;;;;;;27.63;14.60;;;;;;;-0.92;100.00;102311.47;838121;23;1161;-82
2022/01/11 01:03:20;;;;;;;31.00;15.23;;;;;;;-0.93;100.00;102327.66;840229;23;914;-82
2022/01/11 01:03:41;;;;;;;27.77;14.13;;;;;;;-0.99;100.00;102332.38;833758;23;1183;-82
2022/01/11 01:04:04;;;;;;;26.65;14.27;;;;;;;-1.03;100.00;102328.69;829515;23;1009;-82
2022/01/11 01:04:25;;;;;;;25.33;14.18;;;;;;;-1.01;100.00;102362.16;837330;23;4214;-82
2022/01/11 01:04:46;;;;;;;27.13;14.68;;;;;;;-1.06;100.00;102336.19;838436;23;1296;-82
2022/01/11 01:05:07;;;;;;;27.13;14.40;;;;;;;-1.06;100.00;102313.97;838980;23;1226;-83
2022/01/11 01:05:29;;;;;;;27.85;14.93;;;;;;;-0.99;100.00;102340.97;835981;23;1306;-82
2022/01/11 01:05:50;;;;;;;28.63;14.82;;;;;;;-0.97;100.00;102315.38;832508;23;1241;-82
2022/01/11 01:06:12;;;;;;;28.50;15.13;;;;;;;-1.00;100.00;102344.31;832114;23;1350;-83
2022/01/11 01:06:33;;;;;;;28.65;14.75;;;;;;;-0.94;100.00;102323.28;831678;23;1357;-82
2022/01/11 01:06:54;;;;;;;29.20;14.95;;;;;;;-0.86;100.00;102324.72;830999;23;1576;-82
2022/01/11 01:07:16;;;;;;;27.83;14.30;;;;;;;-0.91;100.00;102313.25;824278;23;4249;-81
2022/01/11 01:07:37;;;;;;;27.38;14.35;;;;;;;-0.94;100.00;102341.25;837201;23;1259;-82
2022/01/11 01:07:59;;;;;;;30.37;14.97;;;;;;;-0.88;100.00;102313.47;840656;23;1330;-83
2022/01/11 01:08:30;;;;;;;28.52;14.43;;;;;;;-0.87;100.00;102340.94;833614;23;1400;-82
2022/01/11 01:08:51;;;;;;;29.63;14.70;;;;;;;-0.88;100.00;102344.28;833796;23;1227;-83
2022/01/11 01:09:12;;;;;;;28.23;15.02;;;;;;;-0.88;100.00;102318.59;836720;23;1334;-82
2022/01/11 01:09:49;;;;;;;27.80;14.95;;;;;;;-0.94;100.00;102324.19;841966;23;1561;-82
2022/01/11 01:10:20;;;;;;;28.25;14.13;;;;;;;-0.94;100.00;102325.84;837062;23;4277;-82
2022/01/11 01:10:46;;;;;;;26.75;14.05;;;;;;;-0.86;100.00;102350.38;828634;23;1273;-82
2022/01/11 01:11:07;;;;;;;29.38;14.32;;;;;;;-0.92;100.00;102352.53;828955;23;1354;-82
2022/01/11 01:11:35;;;;;;;28.83;14.40;;;;;;;-0.93;100.00;102373.88;833263;23;1357;-82
2022/01/11 01:11:55;;;;;;;27.60;14.88;;;;;;;-0.92;100.00;102319.16;838222;23;1240;-81
2022/01/11 01:12:19;;;;;;;27.95;14.60;;;;;;;-0.93;100.00;102318.28;832905;23;1442;-82
2022/01/11 01:12:40;;;;;;;29.17;14.77;;;;;;;-0.93;100.00;102326.00;830243;23;832;-82
2022/01/11 01:13:04;;;;;;;28.77;14.65;;;;;;;-0.94;100.00;102323.28;832850;23;1211;-81
2022/01/11 01:13:28;;;;;;;28.10;13.77;;;;;;;-0.76;100.00;102321.09;831428;23;4207;-82
2022/01/11 01:13:53;;;;;;;27.35;14.07;;;;;;;-0.77;100.00;102327.91;839371;23;1145;-82
2022/01/11 01:14:14;;;;;;;27.40;14.40;;;;;;;-0.69;100.00;102326.75;839289;23;1360;-82
2022/01/11 01:14:35;;;;;;;28.30;14.68;;;;;;;-0.77;100.00;102316.75;843044;23;1301;-82
2022/01/11 01:14:55;;;;;;;29.25;15.20;;;;;;;-0.70;100.00;102312.13;839258;23;1357;-82
2022/01/11 01:15:16;;;;;;;27.50;14.60;;;;;;;-0.71;100.00;102312.03;838913;23;1098;-82
2022/01/11 01:15:37;;;;;;;27.92;14.20;;;;;;;-0.76;100.00;102319.44;840632;23;1006;-82
2022/01/11 01:16:04;;;;;;;27.75;14.07;;;;;;;-0.77;100.00;102325.34;839160;23;1349;-82
2022/01/11 01:16:50;;;;;;;28.70;13.63;;;;;;;-0.71;100.00;102318.06;849499;23;4790;-81
2022/01/11 01:17:19;;;;;;;29.27;14.65;;;;;;;-0.78;100.00;102330.38;842757;23;1400;-81
2022/01/11 01:17:40;;;;;;;28.83;14.07;;;;;;;-0.79;100.00;102318.31;835333;23;1523;-82
2022/01/11 01:18:01;;;;;;;29.13;13.77;;;;;;;-0.82;100.00;102331.84;834673;23;1268;-82
2022/01/11 01:18:26;;;;;;;26.92;14.30;;;;;;;-0.90;100.00;102317.59;839261;23;1340;-81
2022/01/11 01:18:47;;;;;;;27.83;14.27;;;;;;;-0.82;100.00;102326.69;839667;23;1228;-81
2022/01/11 01:19:09;;;;;;;26.75;13.27;;;;;;;-0.75;100.00;102333.16;827129;23;4255;-82
2022/01/11 01:19:33;;;;;;;27.48;13.68;;;;;;;-0.83;100.00;102340.34;830757;23;1270;-81
2022/01/11 01:19:54;;;;;;;26.35;13.95;;;;;;;-0.86;100.00;102343.59;831261;23;1349;-82
2022/01/11 01:20:15;;;;;;;27.40;13.82;;;;;;;-0.94;100.00;102344.75;831475;23;1333;-81
2022/01/11 01:20:36;;;;;;;25.65;13.73;;;;;;;-0.98;100.00;102323.88;830968;23;1375;-82
2022/01/11 01:20:57;;;;;;;26.30;14.30;;;;;;;-1.01;100.00;102315.97;831541;23;1137;-82
2022/01/11 01:21:18;;;;;;;28.60;14.63;;;;;;;-1.04;100.00;102326.91;831668;23;1181;-82
2022/01/11 01:21:39;;;;;;;29.92;14.82;;;;;;;-1.06;100.00;102331.94;831346;23;1193;-82
2022/01/11 01:22:00;;;;;;;28.50;14.38;;;;;;;-0.94;100.00;102318.16;839863;23;1588;-82
2022/01/11 01:22:20;;;;;;;28.43;13.90;;;;;;;-0.98;100.00;102329.00;838432;23;4218;-82
2022/01/11 01:22:41;;;;;;;29.00;14.10;;;;;;;-0.96;100.00;102330.00;840896;23;1301;-81
2022/01/11 01:23:05;;;;;;;29.63;14.10;;;;;;;-0.92;100.00;102322.63;835689;23;1255;-83
2022/01/11 01:23:26;;;;;;;28.42;14.35;;;;;;;-0.90;100.00;102321.06;836136;23;1213;-83
2022/01/11 01:23:47;;;;;;;27.98;13.77;;;;;;;-0.75;100.00;102339.19;835266;23;1352;-82
2022/01/11 01:24:10;;;;;;;26.30;13.52;;;;;;;-0.79;100.00;102319.22;839626;23;1177;-82
2022/01/11 01:24:31;;;;;;;27.33;13.63;;;;;;;-0.74;100.00;102322.97;840708;23;995;-81
2022/01/11 01:24:52;;;;;;;27.23;14.03;;;;;;;-0.81;100.00;102338.75;835522;23;1233;-81
2022/01/11 01:25:15;;;;;;;27.08;13.88;;;;;;;-0.87;100.00;102352.06;838192;23;4397;-81
2022/01/11 01:25:35;;;;;;;28.33;15.20;;;;;;;-0.92;100.00;102326.88;839450;23;1153;-82
2022/01/11 01:25:56;;;;;;;29.48;14.50;;;;;;;-0.99;100.00;102328.13;837555;23;1307;-81
2022/01/11 01:26:18;;;;;;;28.35;14.20;;;;;;;-1.06;100.00;102349.03;828791;23;1303;-82
2022/01/11 01:26:39;;;;;;;27.80;13.98;;;;;;;-1.08;100.00;102320.69;833452;23;1235;-82
2022/01/11 01:27:00;;;;;;;27.20;13.80;;;;;;;-1.13;100.00;102323.72;833983;23;1385;-82
2022/01/11 01:27:23;;;;;;;26.13;13.88;;;;;;;-1.14;100.00;102324.50;832743;23;1288;-82
2022/01/11 01:27:43;;;;;;;26.30;13.70;;;;;;;-1.14;100.00;102353.59;833665;23;1336;-83
2022/01/11 01:28:06;;;;;;;30.05;14.77;;;;;;;-1.15;100.00;102351.84;837014;23;1321;-82
2022/01/11 01:28:27;;;;;;;27.38;13.73;;;;;;;-1.08;100.00;102325.81;836965;23;4220;-82
2022/01/11 01:28:52;;;;;;;26.48;13.43;;;;;;;-0.94;100.00;102339.59;833715;23;1316;-82
2022/01/11 01:29:14;;;;;;;25.80;13.13;;;;;;;-0.95;100.00;102357.47;828642;23;1324;-82
2022/01/11 01:29:35;;;;;;;25.80;13.50;;;;;;;-0.94;100.00;102344.75;830565;23;879;-84
2022/01/11 01:29:55;;;;;;;27.53;14.23;;;;;;;-1.00;100.00;102330.59;828454;23;1280;-82
2022/01/11 01:30:21;;;;;;;26.73;14.10;;;;;;;-0.96;100.00;102360.81;837688;23;1939;-82
2022/01/11 01:30:45;;;;;;;27.48;13.85;;;;;;;-0.97;100.00;102333.34;837887;23;1345;-82
2022/01/11 01:31:05;;;;;;;28.30;14.23;;;;;;;-0.99;100.00;102347.78;830084;23;1419;-82
2022/01/11 01:31:31;;;;;;;27.67;14.07;;;;;;;-0.99;100.00;102335.81;831455;23;4230;-82
2022/01/11 01:32:02;;;;;;;26.90;13.48;;;;;;;-0.99;100.00;102345.22;829191;23;1406;-82
2022/01/11 01:32:24;;;;;;;26.00;13.35;;;;;;;-0.92;100.00;102373.97;838484;23;1095;-82
2022/01/11 01:32:52;;;;;;;26.02;13.65;;;;;;;-0.93;100.00;102333.69;837790;23;1390;-82
2022/01/11 01:33:13;;;;;;;26.17;13.50;;;;;;;-0.83;100.00;102348.06;836885;23;1321;-82
2022/01/11 01:33:37;;;;;;;25.02;13.32;;;;;;;-0.88;100.00;102341.72;832756;23;1298;-82
2022/01/11 01:33:58;;;;;;;24.13;13.05;;;;;;;-0.87;100.00;102364.03;833894;23;1252;-82
2022/01/11 01:34:18;;;;;;;25.70;13.27;;;;;;;-0.84;100.00;102371.94;829132;23;4248;-82
2022/01/11 01:34:39;;;;;;;27.17;13.93;;;;;;;-0.83;100.00;102355.75;826905;23;1296;-82
2022/01/11 01:35:05;;;;;;;27.52;14.13;;;;;;;-0.83;100.00;102348.06;827226;23;1286;-82
2022/01/11 01:35:27;;;;;;;26.80;13.73;;;;;;;-0.80;100.00;102338.00;830875;23;1342;-82
2022/01/11 01:35:56;;;;;;;24.75;12.73;;;;;;;-0.77;100.00;102370.69;839880;23;1237;-82
2022/01/11 01:36:17;;;;;;;25.77;13.80;;;;;;;-0.75;100.00;102372.59;835018;23;1216;-82
2022/01/11 01:36:40;;;;;;;23.90;12.38;;;;;;;-0.73;100.00;102365.88;835345;23;1402;-82
2022/01/11 01:37:04;;;;;;;24.85;12.27;;;;;;;-0.67;100.00;102379.91;839469;23;856;-82
2022/01/11 01:37:25;;;;;;;26.00;12.95;;;;;;;-0.77;100.00;102353.59;834298;23;4274;-82
2022/01/11 01:37:49;;;;;;;26.00;13.20;;;;;;;-0.80;100.00;102334.50;835592;23;1279;-81
2022/01/11 01:38:11;;;;;;;26.58;13.40;;;;;;;-0.81;100.00;102343.91;826634;23;1320;-82
2022/01/11 01:38:35;;;;;;;26.02;13.57;;;;;;;-0.83;100.00;102360.91;833404;23;1276;-81
2022/01/11 01:38:56;;;;;;;27.15;13.93;;;;;;;-0.86;100.00;102338.47;841338;23;958;-81
2022/01/11 01:39:17;;;;;;;25.95;13.30;;;;;;;-0.89;100.00;102365.59;845539;23;1256;-81
2022/01/11 01:39:37;;;;;;;25.03;13.33;;;;;;;-0.81;100.00;102373.84;837464;23;1323;-81
2022/01/11 01:39:58;;;;;;;24.67;12.87;;;;;;;-0.73;100.00;102335.03;840513;23;1060;-82
2022/01/11 01:40:18;;;;;;;24.05;12.45;;;;;;;-0.69;100.00;102349.88;836509;23;4233;-81
2022/01/11 01:40:44;;;;;;;25.58;12.63;;;;;;;-0.75;100.00;102335.72;842044;23;698;-81
2022/01/11 01:41:14;;;;;;;24.05;12.82;;;;;;;-0.77;100.00;102342.44;836895;23;1268;-82
2022/01/11 01:41:35;;;;;;;25.00;12.55;;;;;;;-0.82;100.00;102341.22;828859;23;869;-81
2022/01/11 01:41:55;;;;;;;23.75;12.68;;;;;;;-0.83;100.00;102344.56;836175;23;1134;-81
2022/01/11 01:42:29;;;;;;;24.70;12.93;;;;;;;-0.85;100.00;102388.13;832028;23;1303;-81
2022/01/11 01:42:51;;;;;;;25.95;12.98;;;;;;;-0.82;100.00;102377.19;829994;23;1380;-82
2022/01/11 01:43:15;;;;;;;27.45;13.27;;;;;;;-0.86;100.00;102373.50;832597;23;4244;-80
2022/01/11 01:43:36;;;;;;;27.42;13.32;;;;;;;-0.92;100.00;102367.94;838023;23;1243;-82
2022/01/11 01:44:01;;;;;;;24.60;13.02;;;;;;;-0.86;100.00;102383.78;846888;23;1378;-81
2022/01/11 01:44:25;;;;;;;24.35;12.57;;;;;;;-0.82;100.00;102379.75;841903;23;1339;-81
2022/01/11 01:44:48;;;;;;;25.88;13.48;;;;;;;-0.86;100.00;102350.38;841205;23;1243;-81
2022/01/11 01:45:14;;;;;;;25.80;13.20;;;;;;;-0.91;100.00;102354.34;837722;23;1405;-80
2022/01/11 01:45:37;;;;;;;26.02;13.10;;;;;;;-0.95;100.00;102350.66;838877;23;1348;-81
2022/01/11 01:46:00;;;;;;;26.23;13.50;;;;;;;-1.01;100.00;102381.06;829990;23;1240;-81
2022/01/11 01:46:21;;;;;;;26.55;13.70;;;;;;;-1.05;100.00;102340.53;829864;23;4337;-82
2022/01/11 01:46:42;;;;;;;26.80;13.95;;;;;;;-1.13;100.00;102347.69;837899;23;1417;-82
2022/01/11 01:47:03;;;;;;;25.77;13.27;;;;;;;-0.98;100.00;102357.25;835791;23;1191;-81
2022/01/11 01:47:24;;;;;;;27.60;13.50;;;;;;;-1.01;100.00;102337.41;839936;23;1335;-81
2022/01/11 01:47:45;;;;;;;27.30;13.18;;;;;;;-1.05;100.00;102367.09;839761;23;1355;-81
2022/01/11 01:48:06;;;;;;;27.08;13.60;;;;;;;-1.04;100.00;102343.22;835695;23;1080;-82
2022/01/11 01:48:28;;;;;;;25.15;13.48;;;;;;;-1.07;100.00;102342.97;835385;23;1255;-82
2022/01/11 01:48:50;;;;;;;26.95;13.43;;;;;;;-1.12;100.00;102344.34;839685;23;1270;-81
2022/01/11 01:49:16;;;;;;;27.33;13.95;;;;;;;-1.12;100.00;102338.31;838173;23;5168;-81
2022/01/11 01:49:39;;;;;;;28.15;14.02;;;;;;;-1.08;100.00;102353.16;835823;23;1520;-83
2022/01/11 01:50:03;;;;;;;25.50;12.98;;;;;;;-0.90;100.00;102366.38;840122;23;1321;-82
2022/01/11 01:50:26;;;;;;;24.98;13.07;;;;;;;-0.92;100.00;102342.28;831448;23;1874;-81
2022/01/11 01:50:55;;;;;;;24.52;12.96;;;;;;;-0.97;100.00;102356.47;827882;23;1379;-81